createdAt,value
2023-02-06T00:00:01.070Z,-3.17
2023-02-06T00:01:01.070Z,-3.06
2023-02-06T00:02:01.083Z,-3.06
2023-02-06T00:03:01.067Z,-2.89
2023-02-06T00:04:01.067Z,-2.89
2023-02-06T00:05:01.093Z,-2.61
2023-02-06T00:06:01.171Z,-2.72
2023-02-06T00:07:01.072Z,-3.06
2023-02-06T00:08:01.079Z,-3.06
2023-02-06T00:09:01.091Z,-3.06
2023-02-06T00:10:01.072Z,-3.06
2023-02-06T00:11:01.065Z,-3.17
2023-02-06T00:12:01.082Z,-3.06
2023-02-06T00:13:01.075Z,-3.17
2023-02-06T00:14:01.104Z,-3.17
2023-02-06T00:15:01.073Z,-3.17
2023-02-06T00:16:01.138Z,-2.89
2023-02-06T00:17:01.089Z,-2.61
2023-02-06T00:18:01.066Z,-2.89
2023-02-06T00:19:01.075Z,-2.89
2023-02-06T00:20:01.077Z,-2.61
2023-02-06T00:21:01.103Z,-2.72
2023-02-06T00:22:01.075Z,-2.61
2023-02-06T00:23:01.066Z,-2.61
2023-02-06T00:24:01.069Z,-3.06
2023-02-06T00:25:01.085Z,-3.28
2023-02-06T00:26:01.074Z,-3.06
2023-02-06T00:27:01.073Z,-3.06
2023-02-06T00:28:01.134Z,-3.06
2023-02-06T00:29:01.102Z,-3.17
2023-02-06T00:30:01.072Z,-3.17
2023-02-06T00:31:01.186Z,-3.06
2023-02-06T00:32:01.071Z,-3.06
2023-02-06T00:33:01.085Z,-3.17
2023-02-06T00:34:01.069Z,-3.28
2023-02-06T00:35:01.093Z,-3.06
2023-02-06T00:36:01.095Z,-3.06
2023-02-06T00:37:01.104Z,-3.17
2023-02-06T00:38:01.082Z,-3.17
2023-02-06T00:39:01.095Z,-3.28
2023-02-06T00:40:01.075Z,-3.61
2023-02-06T00:41:01.080Z,-3.89
2023-02-06T00:42:01.083Z,-3.61
2023-02-06T00:43:01.086Z,-3.72
2023-02-06T00:44:01.081Z,-3.61
2023-02-06T00:45:01.099Z,-3.61
2023-02-06T00:46:01.095Z,-3.89
2023-02-06T00:47:01.091Z,-3.72
2023-02-06T00:48:01.092Z,-3.89
2023-02-06T00:49:01.090Z,-3.72
2023-02-06T00:50:01.092Z,-3.61
2023-02-06T00:51:01.091Z,-3.72
2023-02-06T00:52:01.089Z,-3.72
2023-02-06T00:53:01.112Z,-3.44
2023-02-06T00:54:01.079Z,-3.28
2023-02-06T00:55:01.091Z,-3.06
2023-02-06T00:56:01.101Z,-3.06
2023-02-06T00:57:01.111Z,-3.06
2023-02-06T00:58:01.086Z,-2.72
2023-02-06T00:59:01.096Z,-3.28
2023-02-06T01:00:01.098Z,-3.06
2023-02-06T01:01:01.097Z,-3.06
2023-02-06T01:02:01.139Z,-3.28
2023-02-06T01:03:01.120Z,-3.44
2023-02-06T01:04:01.098Z,-3.61
2023-02-06T01:05:01.099Z,-3.61
2023-02-06T01:06:01.097Z,-3.72
2023-02-06T01:07:01.092Z,-3.72
2023-02-06T01:08:02.802Z,-4.06
2023-02-06T01:09:01.123Z,-4.06
2023-02-06T01:10:01.098Z,-4.06
2023-02-06T01:11:01.100Z,-4.33
2023-02-06T01:12:01.098Z,-4.61
2023-02-06T01:13:01.091Z,-3.89
2023-02-06T01:14:01.085Z,-4.06
2023-02-06T01:15:01.104Z,-4.06
2023-02-06T01:16:01.144Z,-3.72
2023-02-06T01:17:01.094Z,-3.72
2023-02-06T01:18:01.090Z,-4.22
2023-02-06T01:19:01.085Z,-3.61
2023-02-06T01:20:01.098Z,-3.44
2023-02-06T01:21:01.093Z,-3.61
2023-02-06T01:22:01.085Z,-3.17
2023-02-06T01:23:01.114Z,-3.28
2023-02-06T01:24:01.088Z,-3.44
2023-02-06T01:25:01.104Z,-3.28
2023-02-06T01:26:01.102Z,-3.44
2023-02-06T01:27:01.092Z,-3.44
2023-02-06T01:28:01.134Z,-3.44
2023-02-06T01:29:01.098Z,-3.44
2023-02-06T01:30:01.120Z,-3.61
2023-02-06T01:31:01.276Z,-3.89
2023-02-06T01:32:01.092Z,-4.06
2023-02-06T01:33:01.104Z,-3.89
2023-02-06T01:34:01.105Z,-4.06
2023-02-06T01:35:01.092Z,-3.89
2023-02-06T01:36:01.109Z,-4.06
2023-02-06T01:37:01.105Z,-4.22
2023-02-06T01:38:01.108Z,-3.72
2023-02-06T01:39:01.109Z,-3.44
2023-02-06T01:40:01.098Z,-3.44
2023-02-06T01:41:01.162Z,-3.61
2023-02-06T01:42:01.098Z,-3.89
2023-02-06T01:43:01.104Z,-3.89
2023-02-06T01:44:01.113Z,-3.89
2023-02-06T01:45:01.102Z,-3.89
2023-02-06T01:46:01.105Z,-4.22
2023-02-06T01:47:01.112Z,-4.22
2023-02-06T01:48:01.107Z,-3.61
2023-02-06T01:49:01.127Z,-3.44
2023-02-06T01:50:01.110Z,-3.61
2023-02-06T01:51:01.107Z,-3.89
2023-02-06T01:52:01.111Z,-3.89
2023-02-06T01:53:01.113Z,-3.89
2023-02-06T01:54:01.107Z,-3.72
2023-02-06T01:55:01.103Z,-3.72
2023-02-06T01:56:01.111Z,-3.89
2023-02-06T01:57:01.186Z,-3.89
2023-02-06T01:58:01.128Z,-3.61
2023-02-06T01:59:01.113Z,-3.89
2023-02-06T02:00:01.111Z,-3.72
2023-02-06T02:01:01.153Z,-3.72
2023-02-06T02:02:01.170Z,-3.61
2023-02-06T02:03:01.119Z,-3.61
2023-02-06T02:04:01.100Z,-3.61
2023-02-06T02:05:01.105Z,-3.72
2023-02-06T02:06:01.114Z,-4.22
2023-02-06T02:07:01.109Z,-3.89
2023-02-06T02:08:01.192Z,-4.33
2023-02-06T02:09:01.106Z,-4.22
2023-02-06T02:10:01.107Z,-4.22
2023-02-06T02:11:01.122Z,-4.33
2023-02-06T02:12:01.124Z,-4.33
2023-02-06T02:13:01.139Z,-4.33
2023-02-06T02:14:01.112Z,-4.22
2023-02-06T02:15:01.138Z,-4.22
2023-02-06T02:16:01.159Z,-4.06
2023-02-06T02:17:01.129Z,-4.22
2023-02-06T02:18:01.128Z,-4.06
2023-02-06T02:19:01.119Z,-3.89
2023-02-06T02:20:01.131Z,-4.06
2023-02-06T02:21:01.124Z,-4.5
2023-02-06T02:22:01.132Z,-4.33
2023-02-06T02:23:01.143Z,-4.22
2023-02-06T02:24:01.146Z,-4.33
2023-02-06T02:25:01.134Z,-4.5
2023-02-06T02:26:01.128Z,-4.33
2023-02-06T02:27:01.139Z,-4.22
2023-02-06T02:28:01.159Z,-4.06
2023-02-06T02:29:01.177Z,-4.33
2023-02-06T02:30:01.147Z,-4.33
2023-02-06T02:31:01.136Z,-4.78
2023-02-06T02:32:01.143Z,-4.61
2023-02-06T02:33:01.139Z,-4.61
2023-02-06T02:34:01.132Z,-4.94
2023-02-06T02:35:01.144Z,-4.78
2023-02-06T02:36:01.145Z,-4.78
2023-02-06T02:37:01.140Z,-4.33
2023-02-06T02:38:01.156Z,-4.22
2023-02-06T02:39:01.148Z,-3.89
2023-02-06T02:40:01.157Z,-3.89
2023-02-06T02:41:01.135Z,-3.89
2023-02-06T02:42:01.143Z,-3.89
2023-02-06T02:43:01.146Z,-4.06
2023-02-06T02:44:01.140Z,-3.89
2023-02-06T02:45:01.164Z,-3.89
2023-02-06T02:46:01.164Z,-4.06
2023-02-06T02:47:01.147Z,-3.89
2023-02-06T02:48:01.138Z,-4.22
2023-02-06T02:49:01.133Z,-4.06
2023-02-06T02:50:01.142Z,-4.33
2023-02-06T02:51:01.149Z,-4.78
2023-02-06T02:52:01.133Z,-4.33
2023-02-06T02:53:01.150Z,-4.22
2023-02-06T02:54:01.135Z,-4.33
2023-02-06T02:55:01.142Z,-4.33
2023-02-06T02:56:01.139Z,-4.94
2023-02-06T02:57:01.137Z,-4.61
2023-02-06T02:58:01.133Z,-4.33
2023-02-06T02:59:01.144Z,-4.33
2023-02-06T03:00:01.145Z,-4.33
2023-02-06T03:01:01.317Z,-4.33
2023-02-06T03:02:01.187Z,-4.5
2023-02-06T03:03:01.140Z,-4.5
2023-02-06T03:04:01.165Z,-4.06
2023-02-06T03:05:01.148Z,-4.61
2023-02-06T03:06:01.135Z,-4.22
2023-02-06T03:07:01.136Z,-4.33
2023-02-06T03:08:01.143Z,-4.5
2023-02-06T03:09:01.140Z,-4.06
2023-02-06T03:10:01.141Z,-4.33
2023-02-06T03:11:01.153Z,-4.22
2023-02-06T03:12:01.139Z,-4.22
2023-02-06T03:13:01.138Z,-4.33
2023-02-06T03:14:01.120Z,-3.89
2023-02-06T03:15:01.135Z,-4.06
2023-02-06T03:16:01.141Z,-3.89
2023-02-06T03:17:01.164Z,-4.33
2023-02-06T03:18:01.139Z,-4.06
2023-02-06T03:19:01.144Z,-3.61
2023-02-06T03:20:01.147Z,-4.22
2023-02-06T03:21:01.163Z,-4.22
2023-02-06T03:22:01.137Z,-4.06
2023-02-06T03:23:01.143Z,-4.22
2023-02-06T03:24:01.139Z,-4.22
2023-02-06T03:25:01.147Z,-3.89
2023-02-06T03:26:01.134Z,-4.33
2023-02-06T03:27:01.149Z,-4.22
2023-02-06T03:28:01.201Z,-4.33
2023-02-06T03:29:01.157Z,-4.61
2023-02-06T03:30:01.143Z,-4.5
2023-02-06T03:31:01.139Z,-4.5
2023-02-06T03:32:01.139Z,-4.33
2023-02-06T03:33:01.164Z,-4.5
2023-02-06T03:34:01.154Z,-4.33
2023-02-06T03:35:01.135Z,-4.5
2023-02-06T03:36:01.175Z,-4.94
2023-02-06T03:37:01.143Z,-4.78
2023-02-06T03:38:01.151Z,-4.5
2023-02-06T03:39:01.164Z,-4.78
2023-02-06T03:40:01.143Z,-4.5
2023-02-06T03:41:01.153Z,-4.61
2023-02-06T03:42:01.155Z,-4.33
2023-02-06T03:43:01.144Z,-4.33
2023-02-06T03:44:01.170Z,-4.22
2023-02-06T03:45:01.160Z,-4.06
2023-02-06T03:46:01.248Z,-4.06
2023-02-06T03:47:01.165Z,-4.33
2023-02-06T03:48:01.156Z,-3.89
2023-02-06T03:49:01.182Z,-4.06
2023-02-06T03:50:01.204Z,-3.89
2023-02-06T03:51:01.170Z,-4.06
2023-02-06T03:52:01.166Z,-3.72
2023-02-06T03:53:01.171Z,-3.89
2023-02-06T03:54:01.167Z,-3.72
2023-02-06T03:55:01.165Z,-4.22
2023-02-06T03:56:01.167Z,-3.89
2023-02-06T03:57:01.159Z,-3.72
2023-02-06T03:58:01.165Z,-4.22
2023-02-06T03:59:01.166Z,-4.22
2023-02-06T04:00:01.171Z,-3.89
2023-02-06T04:01:01.220Z,-4.22
2023-02-06T04:02:01.248Z,-4.5
2023-02-06T04:03:01.190Z,-4.5
2023-02-06T04:04:01.168Z,-4.61
2023-02-06T04:05:01.185Z,-4.5
2023-02-06T04:06:01.165Z,-4.33
2023-02-06T04:07:01.172Z,-4.33
2023-02-06T04:08:01.183Z,-4.33
2023-02-06T04:09:01.158Z,-4.33
2023-02-06T04:10:01.162Z,-4.22
2023-02-06T04:11:01.173Z,-4.22
2023-02-06T04:12:01.171Z,-4.06
2023-02-06T04:13:01.188Z,-4.33
2023-02-06T04:14:01.171Z,-4.33
2023-02-06T04:15:01.164Z,-4.33
2023-02-06T04:16:01.165Z,-4.5
2023-02-06T04:17:01.170Z,-4.5
2023-02-06T04:18:01.768Z,-4.61
2023-02-06T04:19:01.188Z,-4.78
2023-02-06T04:20:01.174Z,-4.78
2023-02-06T04:21:01.195Z,-4.61
2023-02-06T04:22:01.181Z,-4.94
2023-02-06T04:23:01.176Z,-4.5
2023-02-06T04:24:01.177Z,-5.06
2023-02-06T04:25:01.190Z,-4.78
2023-02-06T04:26:01.178Z,-4.33
2023-02-06T04:27:01.172Z,-4.61
2023-02-06T04:28:01.229Z,-4.78
2023-02-06T04:29:01.182Z,-5.06
2023-02-06T04:30:01.179Z,-5.39
2023-02-06T04:31:01.269Z,-5.56
2023-02-06T04:32:01.176Z,-5.56
2023-02-06T04:33:01.186Z,-5.72
2023-02-06T04:34:01.173Z,-5.22
2023-02-06T04:35:01.187Z,-5.22
2023-02-06T04:36:01.174Z,-5.06
2023-02-06T04:37:01.201Z,-5.22
2023-02-06T04:38:01.192Z,-5.39
2023-02-06T04:39:01.181Z,-5.22
2023-02-06T04:40:01.172Z,-5.39
2023-02-06T04:41:01.172Z,-4.94
2023-02-06T04:42:01.174Z,-4.78
2023-02-06T04:43:01.178Z,-4.94
2023-02-06T04:44:01.174Z,-4.78
2023-02-06T04:45:01.174Z,-5.39
2023-02-06T04:46:01.220Z,-4.94
2023-02-06T04:47:01.184Z,-4.78
2023-02-06T04:48:01.185Z,-4.78
2023-02-06T04:49:01.181Z,-4.78
2023-02-06T04:50:01.170Z,-4.78
2023-02-06T04:51:01.178Z,-5.06
2023-02-06T04:52:01.189Z,-4.78
2023-02-06T04:53:01.223Z,-4.61
2023-02-06T04:54:01.178Z,-4.94
2023-02-06T04:55:01.185Z,-4.94
2023-02-06T04:56:01.183Z,-4.78
2023-02-06T04:57:01.185Z,-5.22
2023-02-06T04:58:01.174Z,-5.39
2023-02-06T04:59:01.178Z,-5.06
2023-02-06T05:00:01.210Z,-5.06
2023-02-06T05:01:01.182Z,-5.06
2023-02-06T05:02:01.185Z,-4.94
2023-02-06T05:03:01.194Z,-4.94
2023-02-06T05:04:01.184Z,-4.94
2023-02-06T05:05:01.176Z,-4.94
2023-02-06T05:06:01.175Z,-4.78
2023-02-06T05:07:01.184Z,-4.94
2023-02-06T05:08:01.177Z,-4.61
2023-02-06T05:09:01.199Z,-5.06
2023-02-06T05:10:01.190Z,-4.5
2023-02-06T05:11:01.182Z,-4.33
2023-02-06T05:12:01.176Z,-4.5
2023-02-06T05:13:01.180Z,-4.33
2023-02-06T05:14:01.181Z,-4.33
2023-02-06T05:15:01.189Z,-4.5
2023-02-06T05:16:01.211Z,-4.78
2023-02-06T05:17:01.192Z,-5.06
2023-02-06T05:18:01.184Z,-4.78
2023-02-06T05:19:01.189Z,-4.78
2023-02-06T05:20:01.182Z,-5.06
2023-02-06T05:21:01.195Z,-4.78
2023-02-06T05:22:01.178Z,-4.78
2023-02-06T05:23:01.204Z,-4.78
2023-02-06T05:24:01.180Z,-4.94
2023-02-06T05:25:01.208Z,-4.78
2023-02-06T05:26:01.177Z,-4.78
2023-02-06T05:27:01.194Z,-4.78
2023-02-06T05:28:01.261Z,-4.94
2023-02-06T05:29:01.188Z,-4.61
2023-02-06T05:30:01.205Z,-4.78
2023-02-06T05:31:01.286Z,-5.06
2023-02-06T05:32:01.196Z,-4.78
2023-02-06T05:33:01.192Z,-5.06
2023-02-06T05:34:01.193Z,-4.61
2023-02-06T05:35:01.198Z,-4.78
2023-02-06T05:36:01.192Z,-4.78
2023-02-06T05:37:01.185Z,-4.33
2023-02-06T05:38:01.189Z,-4.5
2023-02-06T05:39:01.187Z,-4.5
2023-02-06T05:40:01.191Z,-4.78
2023-02-06T05:41:01.239Z,-4.5
2023-02-06T05:42:01.206Z,-4.94
2023-02-06T05:43:01.210Z,-4.78
2023-02-06T05:44:01.229Z,-4.78
2023-02-06T05:45:01.198Z,-4.33
2023-02-06T05:46:01.249Z,-4.61
2023-02-06T05:47:01.215Z,-4.33
2023-02-06T05:48:01.189Z,-4.94
2023-02-06T05:49:01.206Z,-4.78
2023-02-06T05:50:01.204Z,-4.5
2023-02-06T05:51:01.207Z,-4.78
2023-02-06T05:52:01.193Z,-4.78
2023-02-06T05:53:01.205Z,-4.78
2023-02-06T05:54:01.199Z,-4.78
2023-02-06T05:55:01.198Z,-4.78
2023-02-06T05:56:01.213Z,-4.5
2023-02-06T05:57:01.221Z,-4.33
2023-02-06T05:58:01.211Z,-4.5
2023-02-06T05:59:01.205Z,-4.33
2023-02-06T06:00:01.209Z,-4.33
2023-02-06T06:01:01.205Z,-4.78
2023-02-06T06:02:01.232Z,-4.22
2023-02-06T06:03:01.210Z,-4.33
2023-02-06T06:04:01.247Z,-4.61
2023-02-06T06:05:01.337Z,-4.78
2023-02-06T06:06:01.221Z,-4.33
2023-02-06T06:07:01.210Z,-4.61
2023-02-06T06:08:01.216Z,-4.5
2023-02-06T06:09:01.214Z,-4.33
2023-02-06T06:10:01.219Z,-4.33
2023-02-06T06:11:02.126Z,-4.5
2023-02-06T06:12:01.211Z,-4.61
2023-02-06T06:13:01.232Z,-4.78
2023-02-06T06:14:01.225Z,-5.06
2023-02-06T06:15:01.227Z,-5.22
2023-02-06T06:16:01.222Z,-4.94
2023-02-06T06:17:01.231Z,-4.78
2023-02-06T06:18:01.215Z,-5.06
2023-02-06T06:19:01.216Z,-5.22
2023-02-06T06:20:01.222Z,-5.06
2023-02-06T06:21:01.208Z,-5.22
2023-02-06T06:22:01.224Z,-5.06
2023-02-06T06:23:01.211Z,-5.22
2023-02-06T06:24:01.217Z,-5.56
2023-02-06T06:25:01.214Z,-5.22
2023-02-06T06:26:01.222Z,-5.56
2023-02-06T06:27:01.224Z,-5.22
2023-02-06T06:28:01.230Z,-5.22
2023-02-06T06:29:01.244Z,-5.39
2023-02-06T06:30:01.241Z,-5.39
2023-02-06T06:31:01.269Z,-5.39
2023-02-06T06:32:01.224Z,-5.56
2023-02-06T06:33:01.224Z,-5.22
2023-02-06T06:34:01.231Z,-5.72
2023-02-06T06:35:01.227Z,-5.39
2023-02-06T06:36:01.251Z,-5.22
2023-02-06T06:37:01.236Z,-5.22
2023-02-06T06:38:01.221Z,-5.22
2023-02-06T06:39:01.230Z,-5.83
2023-02-06T06:40:01.232Z,-5.39
2023-02-06T06:41:01.227Z,-5.56
2023-02-06T06:42:01.224Z,-5.22
2023-02-06T06:43:01.232Z,-5.22
2023-02-06T06:44:01.232Z,-4.94
2023-02-06T06:45:01.309Z,-5.06
2023-02-06T06:46:01.251Z,-4.78
2023-02-06T06:47:01.223Z,-4.94
2023-02-06T06:48:01.219Z,-4.94
2023-02-06T06:49:01.522Z,-4.94
2023-02-06T06:50:01.224Z,-4.78
2023-02-06T06:51:01.239Z,-4.78
2023-02-06T06:52:01.228Z,-4.5
2023-02-06T06:53:01.238Z,-4.33
2023-02-06T06:54:01.228Z,-4.5
2023-02-06T06:55:01.242Z,-4.5
2023-02-06T06:56:01.229Z,-4.61
2023-02-06T06:57:01.224Z,-4.61
2023-02-06T06:58:01.219Z,-4.33
2023-02-06T06:59:01.244Z,-4.06
2023-02-06T07:00:01.250Z,-4.33
2023-02-06T07:01:01.357Z,-4.22
2023-02-06T07:02:01.253Z,-4.22
2023-02-06T07:03:01.270Z,-4.06
2023-02-06T07:04:01.247Z,-4.33
2023-02-06T07:05:01.229Z,-4.5
2023-02-06T07:06:01.247Z,-4.33
2023-02-06T07:07:01.325Z,-4.5
2023-02-06T07:08:01.241Z,-4.33
2023-02-06T07:09:01.222Z,-4.06
2023-02-06T07:10:01.243Z,-4.33
2023-02-06T07:11:01.229Z,-4.33
2023-02-06T07:12:01.242Z,-4.5
2023-02-06T07:13:01.244Z,-4.5
2023-02-06T07:14:01.231Z,-4.33
2023-02-06T07:15:01.236Z,-4.5
2023-02-06T07:16:01.240Z,-4.61
2023-02-06T07:17:01.259Z,-4.33
2023-02-06T07:18:01.233Z,-4.5
2023-02-06T07:19:01.237Z,-4.61
2023-02-06T07:20:01.246Z,-4.5
2023-02-06T07:21:01.239Z,-4.61
2023-02-06T07:22:01.247Z,-4.94
2023-02-06T07:23:01.240Z,-4.78
2023-02-06T07:24:01.240Z,-4.94
2023-02-06T07:25:01.253Z,-4.61
2023-02-06T07:26:01.242Z,-4.33
2023-02-06T07:27:01.243Z,-4.33
2023-02-06T07:28:01.300Z,-4.22
2023-02-06T07:29:01.238Z,-4.11
2023-02-06T07:30:01.228Z,-4.06
2023-02-06T07:31:01.320Z,-4.22
2023-02-06T07:32:01.243Z,-3.72
2023-02-06T07:33:01.471Z,-3.72
2023-02-06T07:34:01.254Z,-4.06
2023-02-06T07:35:01.243Z,-3.89
2023-02-06T07:36:03.607Z,-3.72
2023-02-06T07:37:01.279Z,-3.72
2023-02-06T07:38:01.241Z,-3.61
2023-02-06T07:39:01.245Z,-3.61
2023-02-06T07:40:01.251Z,-3.44
2023-02-06T07:41:01.248Z,-3.61
2023-02-06T07:42:01.238Z,-3.44
2023-02-06T07:43:01.247Z,-3.44
2023-02-06T07:44:01.244Z,-3.72
2023-02-06T07:45:01.249Z,-3.44
2023-02-06T07:46:01.412Z,-3.28
2023-02-06T07:47:01.232Z,-3.28
2023-02-06T07:48:01.238Z,-3.17
2023-02-06T07:49:01.313Z,-3.28
2023-02-06T07:50:01.240Z,-2.89
2023-02-06T07:51:01.243Z,-3.28
2023-02-06T07:52:01.241Z,-3.06
2023-02-06T07:53:01.250Z,-2.89
2023-02-06T07:54:01.241Z,-2.72
2023-02-06T07:55:01.236Z,-2.61
2023-02-06T07:56:01.268Z,-2.61
2023-02-06T07:57:01.261Z,-2.17
2023-02-06T07:58:01.247Z,-2.17
2023-02-06T07:59:01.262Z,-2.44
2023-02-06T08:00:01.236Z,-1.67
2023-02-06T08:01:01.336Z,-2.17
2023-02-06T08:02:01.244Z,-2.17
2023-02-06T08:03:01.263Z,-2.28
2023-02-06T08:04:01.242Z,-3.17
2023-02-06T08:05:01.268Z,-2.17
2023-02-06T08:06:01.253Z,-2.44
2023-02-06T08:07:01.256Z,-2.17
2023-02-06T08:08:01.251Z,-2.17
2023-02-06T08:09:01.247Z,-2
2023-02-06T08:10:01.253Z,-2.28
2023-02-06T08:11:01.265Z,-2.61
2023-02-06T08:12:01.246Z,-3.28
2023-02-06T08:13:01.246Z,-3.28
2023-02-06T08:14:01.265Z,-3.17
2023-02-06T08:15:01.270Z,-3.28
2023-02-06T08:16:01.251Z,-3.17
2023-02-06T08:17:01.245Z,-3.44
2023-02-06T08:18:01.242Z,-3.17
2023-02-06T08:19:01.240Z,-3.28
2023-02-06T08:20:01.250Z,-3.17
2023-02-06T08:21:01.361Z,-2.72
2023-02-06T08:22:01.241Z,-3.06
2023-02-06T08:23:01.245Z,-3.28
2023-02-06T08:24:01.253Z,-3.44
2023-02-06T08:25:01.248Z,-3.72
2023-02-06T08:26:01.265Z,-3.17
2023-02-06T08:27:01.247Z,-2.89
2023-02-06T08:28:01.306Z,-2.61
2023-02-06T08:29:01.263Z,-3.06
2023-02-06T08:30:01.247Z,-2.44
2023-02-06T08:31:01.443Z,-2.17
2023-02-06T08:32:01.259Z,-2.17
2023-02-06T08:33:01.263Z,-2
2023-02-06T08:34:01.252Z,-2.28
2023-02-06T08:35:01.251Z,-2.89
2023-02-06T08:36:01.254Z,-2.89
2023-02-06T08:37:01.320Z,-2.28
2023-02-06T08:38:01.254Z,-2.17
2023-02-06T08:39:01.259Z,-1.67
2023-02-06T08:40:01.266Z,-1.67
2023-02-06T08:41:01.265Z,-1.28
2023-02-06T08:42:01.260Z,-1.28
2023-02-06T08:43:01.261Z,-1.11
2023-02-06T08:44:01.268Z,-1.11
2023-02-06T08:45:01.265Z,-1.56
2023-02-06T08:46:01.373Z,-1.83
2023-02-06T08:47:09.517Z,-2.44
2023-02-06T08:48:01.267Z,-2.44
2023-02-06T08:49:01.262Z,-2.44
2023-02-06T08:50:03.305Z,-2.17
2023-02-06T08:51:01.252Z,-2.28
2023-02-06T08:52:01.282Z,-2
2023-02-06T08:53:01.408Z,-2
2023-02-06T08:54:01.278Z,-1.67
2023-02-06T08:55:01.279Z,-1.56
2023-02-06T08:56:01.267Z,-2
2023-02-06T08:57:01.267Z,-1.67
2023-02-06T08:58:01.262Z,-1.83
2023-02-06T08:59:01.273Z,-1.83
2023-02-06T09:00:01.286Z,-1.83
2023-02-06T09:01:01.269Z,-2.17
2023-02-06T09:02:01.286Z,-2.17
2023-02-06T09:03:01.266Z,-2.28
2023-02-06T09:04:01.272Z,-2
2023-02-06T09:05:01.272Z,-1.83
2023-02-06T09:06:09.303Z,-1.67
2023-02-06T09:07:01.275Z,-1.44
2023-02-06T09:08:01.256Z,-1.44
2023-02-06T09:09:01.290Z,-1.44
2023-02-06T09:10:01.266Z,-1.56
2023-02-06T09:11:01.263Z,-1.67
2023-02-06T09:12:01.278Z,-2
2023-02-06T09:13:01.265Z,-2.17
2023-02-06T09:14:01.274Z,-2.28
2023-02-06T09:15:01.263Z,-1.83
2023-02-06T09:16:01.289Z,-1.83
2023-02-06T09:17:01.276Z,-1.56
2023-02-06T09:18:01.263Z,-1.67
2023-02-06T09:19:01.411Z,-1.56
2023-02-06T09:20:01.284Z,-1.56
2023-02-06T09:21:01.272Z,-1.28
2023-02-06T09:22:01.264Z,-1.28
2023-02-06T09:23:01.266Z,-1.44
2023-02-06T09:24:01.269Z,-1.56
2023-02-06T09:25:01.328Z,-2
2023-02-06T09:26:01.260Z,-2.44
2023-02-06T09:27:01.364Z,-2.72
2023-02-06T09:28:01.290Z,-2.61
2023-02-06T09:29:01.261Z,-2.72
2023-02-06T09:30:01.285Z,-2.72
2023-02-06T09:31:01.355Z,-2.61
2023-02-06T09:32:01.262Z,-2.17
2023-02-06T09:33:01.265Z,-2.44
2023-02-06T09:34:01.260Z,-2.44
2023-02-06T09:35:01.279Z,-2.61
2023-02-06T09:36:01.281Z,-2.61
2023-02-06T09:37:01.271Z,-2.61
2023-02-06T09:38:01.265Z,-2.17
2023-02-06T09:39:01.275Z,-2.89
2023-02-06T09:40:01.270Z,-2.44
2023-02-06T09:41:01.303Z,-2.28
2023-02-06T09:42:01.274Z,-2.17
2023-02-06T09:43:01.271Z,-2
2023-02-06T09:44:01.276Z,-2.17
2023-02-06T09:45:01.293Z,-2.17
2023-02-06T09:46:01.295Z,-1.67
2023-02-06T09:47:01.283Z,-1.28
2023-02-06T09:48:01.274Z,-1.56
2023-02-06T09:49:01.283Z,-1.11
2023-02-06T09:50:01.285Z,-1.11
2023-02-06T09:51:01.296Z,-0.28
2023-02-06T09:52:01.280Z,0.44
2023-02-06T09:53:01.304Z,1.33
2023-02-06T09:54:01.276Z,0.89
2023-02-06T09:55:01.309Z,1.17
2023-02-06T09:56:01.275Z,1.61
2023-02-06T09:57:01.302Z,1.17
2023-02-06T09:58:01.284Z,0.72
2023-02-06T09:59:01.282Z,0.89
2023-02-06T10:00:01.286Z,1.33
2023-02-06T10:01:01.293Z,1.61
2023-02-06T10:02:01.298Z,1.17
2023-02-06T10:03:01.292Z,0.72
2023-02-06T10:04:01.322Z,1.33
2023-02-06T10:05:01.276Z,1.06
2023-02-06T10:06:01.273Z,1.06
2023-02-06T10:07:01.279Z,0.72
2023-02-06T10:08:01.274Z,0.28
2023-02-06T10:09:01.275Z,0
2023-02-06T10:10:01.269Z,0.61
2023-02-06T10:11:01.295Z,0.72
2023-02-06T10:12:01.283Z,0.72
2023-02-06T10:13:01.344Z,1.17
2023-02-06T10:14:01.285Z,1.5
2023-02-06T10:15:01.292Z,1.72
2023-02-06T10:16:01.390Z,1.17
2023-02-06T10:17:01.294Z,1.17
2023-02-06T10:18:01.284Z,1.33
2023-02-06T10:19:01.284Z,1.33
2023-02-06T10:20:01.286Z,1.33
2023-02-06T10:21:01.282Z,1.06
2023-02-06T10:22:01.278Z,0.89
2023-02-06T10:23:01.289Z,1.33
2023-02-06T10:24:01.280Z,1.61
2023-02-06T10:25:01.296Z,1.33
2023-02-06T10:26:01.285Z,1.33
2023-02-06T10:27:01.290Z,1.17
2023-02-06T10:28:01.337Z,1.33
2023-02-06T10:29:01.339Z,1.17
2023-02-06T10:30:01.289Z,1.5
2023-02-06T10:31:01.365Z,1.61
2023-02-06T10:32:01.312Z,1.61
2023-02-06T10:33:01.309Z,1.33
2023-02-06T10:34:01.288Z,0.89
2023-02-06T10:35:01.294Z,0.28
2023-02-06T10:36:01.298Z,0
2023-02-06T10:37:01.309Z,-0.17
2023-02-06T10:38:01.299Z,-0.17
2023-02-06T10:39:01.297Z,-0.56
2023-02-06T10:40:01.307Z,-0.56
2023-02-06T10:41:01.310Z,-0.56
2023-02-06T10:42:01.300Z,-0.56
2023-02-06T10:43:01.295Z,-1
2023-02-06T10:44:01.312Z,-0.67
2023-02-06T10:45:18.881Z,-0.83
2023-02-06T10:46:01.313Z,-0.39
2023-02-06T10:47:01.373Z,-0.17
2023-02-06T10:48:01.298Z,-0.28
2023-02-06T10:49:01.376Z,0
2023-02-06T10:50:01.319Z,0.61
2023-02-06T10:51:01.319Z,0.61
2023-02-06T10:52:01.307Z,0.72
2023-02-06T10:53:01.307Z,1.06
2023-02-06T10:54:01.317Z,0.72
2023-02-06T10:55:01.305Z,-0.17
2023-02-06T10:56:01.312Z,0.28
2023-02-06T10:57:01.306Z,0
2023-02-06T10:58:01.307Z,-0.28
2023-02-06T10:59:01.318Z,0
2023-02-06T11:00:01.309Z,0.17
2023-02-06T11:01:01.408Z,-0.28
2023-02-06T11:02:01.354Z,-0.56
2023-02-06T11:03:07.374Z,-1
2023-02-06T11:04:01.304Z,-0.83
2023-02-06T11:05:01.304Z,-0.39
2023-02-06T11:06:01.305Z,-0.17
2023-02-06T11:07:01.317Z,0.44
2023-02-06T11:08:01.304Z,0.28
2023-02-06T11:09:01.305Z,0.28
2023-02-06T11:10:01.317Z,0.44
2023-02-06T11:11:01.301Z,0.61
2023-02-06T11:12:01.304Z,0.89
2023-02-06T11:13:01.313Z,0
2023-02-06T11:14:01.308Z,-0.39
2023-02-06T11:15:01.311Z,-0.39
2023-02-06T11:16:01.377Z,-0.33
2023-02-06T11:17:01.346Z,-0.28
2023-02-06T11:18:01.318Z,0
2023-02-06T11:19:01.312Z,0.28
2023-02-06T11:20:01.310Z,0
2023-02-06T11:21:01.309Z,0.44
2023-02-06T11:22:01.324Z,-0.17
2023-02-06T11:23:01.318Z,-0.17
2023-02-06T11:24:01.312Z,0.17
2023-02-06T11:25:01.339Z,-0.17
2023-02-06T11:26:01.315Z,-0.06
2023-02-06T11:27:01.313Z,0.17
2023-02-06T11:28:01.368Z,0.56
2023-02-06T11:29:01.317Z,0.44
2023-02-06T11:30:01.314Z,0.44
2023-02-06T11:31:01.336Z,0.89
2023-02-06T11:32:01.318Z,0.89
2023-02-06T11:33:04.517Z,0.44
2023-02-06T11:34:01.324Z,0.61
2023-02-06T11:35:01.307Z,0.72
2023-02-06T11:36:01.318Z,0.17
2023-02-06T11:37:01.321Z,0.22
2023-02-06T11:38:01.318Z,0.33
2023-02-06T11:39:01.312Z,0
2023-02-06T11:40:01.310Z,-0.17
2023-02-06T11:41:01.337Z,0.11
2023-02-06T11:42:01.327Z,0.17
2023-02-06T11:43:01.313Z,0.5
2023-02-06T11:44:01.318Z,0.56
2023-02-06T11:45:01.313Z,0.56
2023-02-06T11:46:01.332Z,0.39
2023-02-06T11:47:01.315Z,0.56
2023-02-06T11:48:01.306Z,0.89
2023-02-06T11:49:01.353Z,1.39
2023-02-06T11:50:01.317Z,1.06
2023-02-06T11:51:01.318Z,1.06
2023-02-06T11:52:01.313Z,0.83
2023-02-06T11:53:01.319Z,0.44
2023-02-06T11:54:01.357Z,0.56
2023-02-06T11:55:01.307Z,0.56
2023-02-06T11:56:01.313Z,0.11
2023-02-06T11:57:01.324Z,0.44
2023-02-06T11:58:01.320Z,0.72
2023-02-06T11:59:01.319Z,0.56
2023-02-06T12:00:01.319Z,0.83
2023-02-06T12:01:01.326Z,1.28
2023-02-06T12:02:01.384Z,1.11
2023-02-06T12:03:01.318Z,1.11
2023-02-06T12:04:01.308Z,1.28
2023-02-06T12:05:01.342Z,1.56
2023-02-06T12:06:02.978Z,1.56
2023-02-06T12:07:01.323Z,1.83
2023-02-06T12:08:01.325Z,2
2023-02-06T12:09:01.328Z,2.39
2023-02-06T12:10:01.322Z,2.39
2023-02-06T12:11:01.338Z,2.44
2023-02-06T12:12:01.318Z,2.44
2023-02-06T12:13:01.330Z,2.83
2023-02-06T12:14:01.317Z,2
2023-02-06T12:15:07.366Z,1.56
2023-02-06T12:16:01.328Z,1.72
2023-02-06T12:17:01.310Z,1.28
2023-02-06T12:18:01.319Z,1.44
2023-02-06T12:19:01.334Z,1.72
2023-02-06T12:20:01.321Z,1
2023-02-06T12:21:01.359Z,1.56
2023-02-06T12:22:01.359Z,2
2023-02-06T12:23:01.322Z,1.83
2023-02-06T12:24:01.357Z,2.11
2023-02-06T12:25:01.335Z,2.39
2023-02-06T12:26:01.327Z,2.28
2023-02-06T12:27:01.341Z,2
2023-02-06T12:28:01.348Z,2
2023-02-06T12:29:01.330Z,2
2023-02-06T12:30:01.328Z,2.28
2023-02-06T12:31:01.440Z,2.39
2023-02-06T12:32:01.436Z,2.39
2023-02-06T12:33:01.328Z,3.11
2023-02-06T12:34:01.335Z,2.39
2023-02-06T12:35:01.334Z,2
2023-02-06T12:36:01.329Z,2
2023-02-06T12:37:01.349Z,2.39
2023-02-06T12:38:01.329Z,2.11
2023-02-06T12:39:01.324Z,2.28
2023-02-06T12:40:01.352Z,1.83
2023-02-06T12:41:01.327Z,1.83
2023-02-06T12:42:01.331Z,1.83
2023-02-06T12:43:01.337Z,1.44
2023-02-06T12:44:01.332Z,1.72
2023-02-06T12:45:01.324Z,2
2023-02-06T12:46:01.382Z,2.28
2023-02-06T12:47:01.328Z,1.83
2023-02-06T12:48:01.326Z,2.56
2023-02-06T12:49:01.344Z,2.83
2023-02-06T12:50:01.322Z,2.39
2023-02-06T12:51:01.329Z,2.28
2023-02-06T12:52:01.322Z,2.56
2023-02-06T12:53:01.359Z,2.39
2023-02-06T12:54:01.331Z,2.83
2023-02-06T12:55:01.337Z,2.39
2023-02-06T12:56:01.349Z,2.39
2023-02-06T12:57:01.333Z,2.56
2023-02-06T12:58:01.353Z,2.56
2023-02-06T12:59:01.337Z,2.56
2023-02-06T13:00:01.334Z,2.56
2023-02-06T13:01:01.343Z,1.56
2023-02-06T13:02:01.354Z,1.83